createdAt,value
2022-11-08T00:02:14.985Z,1.70
2022-11-08T00:05:21.049Z,4.27
2022-11-08T00:08:29.420Z,2.43
2022-11-08T00:14:44.350Z,1.87
2022-11-08T00:17:34.182Z,2.50
2022-11-08T00:20:22.605Z,2.80
2022-11-08T00:23:10.835Z,2.00
2022-11-08T00:25:59.256Z,2.40
2022-11-08T00:28:47.269Z,2.30
2022-11-08T00:31:35.712Z,1.63
2022-11-08T00:34:25.353Z,2.10
2022-11-08T00:37:14.204Z,3.13
2022-11-08T00:40:02.459Z,1.83
2022-11-08T00:42:50.369Z,3.07
2022-11-08T00:45:38.883Z,3.33
2022-11-08T00:48:27.277Z,4.83
2022-11-08T00:51:16.746Z,2.07
2022-11-08T00:54:05.615Z,2.17
2022-11-08T00:56:53.660Z,3.07
2022-11-08T00:59:41.928Z,2.70
2022-11-08T01:02:30.295Z,3.17
2022-11-08T01:05:18.506Z,2.97
2022-11-08T01:08:08.361Z,2.47
2022-11-08T01:10:56.439Z,2.73
2022-11-08T01:13:45.247Z,2.30
2022-11-08T01:16:35.317Z,6.40
2022-11-08T01:19:23.562Z,2.37
2022-11-08T01:22:11.729Z,2.40
2022-11-08T01:25:01.523Z,2.60
2022-11-08T01:27:49.447Z,3.03
2022-11-08T01:30:39.564Z,3.50
2022-11-08T01:33:27.845Z,2.50
2022-11-08T01:36:21.769Z,3.63
2022-11-08T01:39:16.366Z,2.57
2022-11-08T01:42:34.091Z,2.10
2022-11-08T01:46:10.874Z,3.07
2022-11-08T01:49:20.053Z,4.57
2022-11-08T01:52:24.865Z,1.43
2022-11-08T01:55:18.338Z,1.80
2022-11-08T01:58:12.377Z,3.03
2022-11-08T02:01:04.062Z,1.77
2022-11-08T02:03:53.088Z,1.70
2022-11-08T02:06:42.188Z,2.57
2022-11-08T02:09:30.383Z,1.37
2022-11-08T02:12:22.070Z,1.50
2022-11-08T02:15:12.667Z,2.90
2022-11-08T02:18:01.011Z,1.33
2022-11-08T02:20:58.729Z,1.60
2022-11-08T02:23:49.444Z,1.67
2022-11-08T02:26:39.317Z,1.93
2022-11-08T02:29:31.874Z,1.20
2022-11-08T02:32:20.233Z,1.13
2022-11-08T02:35:12.087Z,1.57
2022-11-08T02:38:00.420Z,1.43
2022-11-08T02:40:52.090Z,1.30
2022-11-08T02:43:40.305Z,1.20
2022-11-08T02:46:28.469Z,2.20
2022-11-08T02:49:16.299Z,1.00
2022-11-08T02:52:04.749Z,1.70
2022-11-08T02:54:52.861Z,1.73
2022-11-08T02:57:42.259Z,1.47
2022-11-08T03:00:30.546Z,1.10
2022-11-08T03:03:18.836Z,1.53
2022-11-08T03:06:07.590Z,0.97
2022-11-08T03:08:55.718Z,1.00
2022-11-08T03:11:43.845Z,2.60
2022-11-08T03:14:33.484Z,1.50
2022-11-08T03:17:21.720Z,0.90
2022-11-08T03:20:11.170Z,1.70
2022-11-08T03:23:00.231Z,1.13
2022-11-08T03:25:48.174Z,1.20
2022-11-08T03:28:38.765Z,1.63
2022-11-08T03:31:28.464Z,1.33
2022-11-08T03:34:16.694Z,0.80
2022-11-08T03:37:06.788Z,1.40
2022-11-08T03:39:55.200Z,1.13
2022-11-08T03:42:43.014Z,2.47
2022-11-08T03:45:30.870Z,2.13
2022-11-08T03:48:20.960Z,1.73
2022-11-08T03:51:09.281Z,1.77
2022-11-08T03:53:56.976Z,1.30
2022-11-08T03:56:44.844Z,1.77
2022-11-08T03:59:32.762Z,1.63
2022-11-08T04:02:20.518Z,1.77
2022-11-08T04:05:12.800Z,2.50
2022-11-08T04:08:00.966Z,1.23
2022-11-08T04:10:48.957Z,1.47
2022-11-08T04:13:53.702Z,1.53
2022-11-08T04:16:41.763Z,1.77
2022-11-08T04:19:47.176Z,2.13
2022-11-08T04:22:36.508Z,1.30
2022-11-08T04:25:24.137Z,1.63
2022-11-08T04:28:12.070Z,1.70
2022-11-08T04:31:02.938Z,1.63
2022-11-08T04:33:51.660Z,2.53
2022-11-08T04:36:39.716Z,2.97
2022-11-08T04:39:28.780Z,2.83
2022-11-08T04:42:16.752Z,2.10
2022-11-08T04:45:04.608Z,2.40
2022-11-08T04:47:52.194Z,1.40
2022-11-08T04:50:40.001Z,3.03
2022-11-08T04:53:27.678Z,1.47
2022-11-08T04:56:20.673Z,1.27
2022-11-08T04:59:12.097Z,1.20
2022-11-08T05:02:00.534Z,1.20
2022-11-08T05:04:48.759Z,1.13
2022-11-08T05:07:36.417Z,2.07
2022-11-08T05:10:26.783Z,1.93
2022-11-08T05:13:16.108Z,1.20
2022-11-08T05:16:06.913Z,1.17
2022-11-08T05:18:55.131Z,1.47
2022-11-08T05:22:00.154Z,2.50
2022-11-08T05:24:47.848Z,2.70
2022-11-08T05:27:36.321Z,2.23
2022-11-08T05:30:25.571Z,1.60
2022-11-08T05:33:15.920Z,3.07
2022-11-08T05:36:06.091Z,2.63
2022-11-08T05:38:54.456Z,2.37
2022-11-08T05:41:42.108Z,2.10
2022-11-08T05:44:30.076Z,2.40
2022-11-08T05:47:19.483Z,3.33
2022-11-08T05:50:08.317Z,3.00
2022-11-08T05:52:56.807Z,3.07
2022-11-08T05:55:44.743Z,2.40
2022-11-08T05:58:34.445Z,3.17
2022-11-08T06:01:22.205Z,2.67
2022-11-08T06:04:11.563Z,2.13
2022-11-08T06:06:59.271Z,4.10
2022-11-08T06:09:47.225Z,3.43
2022-11-08T06:12:35.283Z,2.57
2022-11-08T06:15:22.934Z,3.80
2022-11-08T06:18:10.974Z,2.10
2022-11-08T06:21:01.405Z,2.50
2022-11-08T06:23:53.363Z,3.00
2022-11-08T06:26:41.122Z,2.87
2022-11-08T06:29:29.210Z,2.80
2022-11-08T06:32:16.970Z,2.67
2022-11-08T06:35:04.762Z,2.83
2022-11-08T06:37:59.881Z,2.10
2022-11-08T06:40:48.665Z,3.67
2022-11-08T06:43:36.436Z,3.50
2022-11-08T06:46:24.289Z,3.53
2022-11-08T06:49:12.148Z,4.13
2022-11-08T06:51:59.932Z,5.27
2022-11-08T06:54:49.201Z,4.17
2022-11-08T06:57:37.120Z,8.60
2022-11-08T07:00:25.938Z,7.03
2022-11-08T07:03:15.527Z,5.00
2022-11-08T07:05:45.503Z,3.70
2022-11-08T07:08:15.405Z,4.07
2022-11-08T07:10:47.801Z,3.70
2022-11-08T07:13:17.642Z,5.13
2022-11-08T07:15:48.799Z,3.93
2022-11-08T07:18:20.276Z,3.30
2022-11-08T07:20:49.773Z,3.23
2022-11-08T07:23:20.066Z,5.47
2022-11-08T07:25:51.000Z,5.07
2022-11-08T07:28:21.334Z,3.17
2022-11-08T07:30:51.108Z,4.50
2022-11-08T07:33:21.380Z,3.13
2022-11-08T07:35:50.960Z,3.93
2022-11-08T07:38:21.531Z,3.30
2022-11-08T07:40:52.705Z,3.80
2022-11-08T07:43:22.115Z,3.33
2022-11-08T07:45:56.678Z,3.87
2022-11-08T07:48:27.206Z,4.07
2022-11-08T07:50:56.742Z,3.70
2022-11-08T07:53:26.517Z,2.93
2022-11-08T07:55:58.443Z,2.57
2022-11-08T07:58:28.284Z,3.67
2022-11-08T08:01:03.418Z,4.30
2022-11-08T08:03:33.179Z,2.97
2022-11-08T08:06:03.140Z,3.80
2022-11-08T08:08:32.648Z,5.23
2022-11-08T08:11:05.088Z,8.17
2022-11-08T08:13:34.532Z,6.67
2022-11-08T08:16:04.428Z,6.50
2022-11-08T08:18:33.856Z,5.03
2022-11-08T08:21:03.278Z,3.47
2022-11-08T08:23:32.660Z,3.80
2022-11-08T08:26:04.809Z,3.40
2022-11-08T08:28:34.212Z,5.20
2022-11-08T08:31:06.917Z,2.47
2022-11-08T08:33:37.825Z,3.93
2022-11-08T08:36:08.462Z,4.57
2022-11-08T08:38:44.148Z,4.27
2022-11-08T08:41:15.400Z,3.70
2022-11-08T08:43:44.926Z,4.60
2022-11-08T08:46:14.359Z,5.67
2022-11-08T08:48:43.804Z,3.70
2022-11-08T08:51:13.180Z,3.13
2022-11-08T08:53:42.573Z,4.50
2022-11-08T08:56:12.172Z,5.10
2022-11-08T08:58:43.110Z,3.83
2022-11-08T09:04:02.531Z,4.13
2022-11-08T09:06:32.074Z,3.13
2022-11-08T09:09:04.604Z,2.83
2022-11-08T09:11:33.975Z,4.13
2022-11-08T09:14:04.805Z,3.60
2022-11-08T09:16:34.166Z,2.93
2022-11-08T09:19:03.631Z,3.87
2022-11-08T09:21:33.021Z,3.10
2022-11-08T09:24:02.455Z,2.73
2022-11-08T09:26:31.917Z,2.23
2022-11-08T09:29:03.465Z,2.50
2022-11-08T09:31:32.872Z,3.80
2022-11-08T09:36:36.815Z,5.20
2022-11-08T09:39:06.266Z,6.07
2022-11-08T09:42:35.667Z,5.77
2022-11-08T09:45:25.556Z,5.00
2022-11-08T09:48:04.852Z,4.07
2022-11-08T09:50:41.266Z,3.50
2022-11-08T09:53:20.058Z,4.50
2022-11-08T09:55:55.549Z,3.50
2022-11-08T09:58:33.107Z,3.20
2022-11-08T10:01:04.477Z,3.43
2022-11-08T10:03:33.511Z,2.37
2022-11-08T10:06:24.184Z,1.90
2022-11-08T10:09:03.473Z,1.57
2022-11-08T10:11:58.078Z,1.63
2022-11-08T10:14:50.634Z,2.67
2022-11-08T10:17:52.444Z,1.57
2022-11-08T10:20:35.595Z,3.43
2022-11-08T10:23:21.539Z,1.70
2022-11-08T10:25:55.685Z,1.67
2022-11-08T10:28:33.375Z,1.45
2022-11-08T10:31:03.235Z,1.60
2022-11-08T10:33:39.371Z,1.48
2022-11-08T10:36:13.609Z,1.63
2022-11-08T10:38:53.058Z,1.30
2022-11-08T10:41:29.679Z,3.60
2022-11-08T10:44:06.033Z,1.40
2022-11-08T10:46:44.284Z,1.10
2022-11-08T10:49:20.587Z,1.85
2022-11-08T10:51:53.933Z,1.27
2022-11-08T10:54:57.002Z,1.60
2022-11-08T10:57:38.336Z,1.25
2022-11-08T11:00:30.318Z,1.17
2022-11-08T11:03:01.815Z,1.98
2022-11-08T11:05:37.715Z,1.35
2022-11-08T11:08:17.567Z,1.02
2022-11-08T11:10:48.723Z,1.75
2022-11-08T11:13:23.548Z,1.30
2022-11-08T11:15:55.106Z,1.85
2022-11-08T11:18:30.972Z,0.90
2022-11-08T11:21:06.053Z,1.08
2022-11-08T11:23:39.549Z,0.75
2022-11-08T11:26:28.993Z,0.98
2022-11-08T11:29:18.976Z,1.40
2022-11-08T11:31:50.831Z,1.27
2022-11-08T11:34:41.560Z,1.40
2022-11-08T11:37:21.958Z,0.80
2022-11-08T11:40:02.328Z,1.75
2022-11-08T11:42:45.723Z,0.60
2022-11-08T11:45:20.644Z,1.25
2022-11-08T11:47:53.637Z,1.35
2022-11-08T11:50:31.116Z,1.30
2022-11-08T11:53:05.991Z,0.50
2022-11-08T11:55:52.068Z,0.70
2022-11-08T11:58:45.040Z,1.70
2022-11-08T12:01:23.612Z,1.35
2022-11-08T12:04:29.676Z,0.80
2022-11-08T12:07:05.907Z,0.65
2022-11-08T12:09:51.960Z,1.35
2022-11-08T12:12:37.207Z,1.05
2022-11-08T12:15:13.825Z,1.75
2022-11-08T12:18:06.604Z,1.50
2022-11-08T12:20:55.901Z,1.17
2022-11-08T12:23:49.722Z,2.28
2022-11-08T12:26:28.364Z,1.57
2022-11-08T12:29:18.691Z,0.80
2022-11-08T12:32:07.425Z,1.30
2022-11-08T12:34:54.129Z,1.70
2022-11-08T12:37:36.247Z,1.00
2022-11-08T12:40:20.247Z,1.30
2022-11-08T12:43:16.064Z,1.10
2022-11-08T12:45:58.406Z,0.67
2022-11-08T12:48:53.792Z,1.07
2022-11-08T12:51:30.076Z,1.93
2022-11-08T12:54:19.950Z,0.70
2022-11-08T12:56:51.062Z,0.97
2022-11-08T12:59:29.252Z,1.27
2022-11-08T13:01:59.690Z,0.77
2022-11-08T13:04:43.207Z,2.23
2022-11-08T13:07:26.065Z,1.30
2022-11-08T13:10:02.183Z,1.73
2022-11-08T13:12:45.333Z,1.83
2022-11-08T13:15:21.987Z,1.37
2022-11-08T13:18:25.239Z,1.27
2022-11-08T13:20:54.271Z,1.90
2022-11-08T13:23:29.366Z,1.33
2022-11-08T13:26:21.480Z,0.70
2022-11-08T13:28:52.016Z,1.00
2022-11-08T13:31:34.730Z,1.13
2022-11-08T13:34:24.846Z,1.10
2022-11-08T13:37:21.052Z,3.00
2022-11-08T13:40:21.464Z,2.87
2022-11-08T13:43:21.495Z,2.23
2022-11-08T13:45:51.226Z,1.13
2022-11-08T13:48:42.443Z,2.20
2022-11-08T13:51:29.809Z,0.63
2022-11-08T13:54:01.235Z,1.10
2022-11-08T13:56:50.785Z,3.00
2022-11-08T13:59:56.511Z,0.90
2022-11-08T14:02:39.760Z,1.00
2022-11-08T14:05:44.754Z,0.80
2022-11-08T14:08:24.548Z,2.23
2022-11-08T14:11:37.940Z,0.77
2022-11-08T14:14:45.871Z,1.43
2022-11-08T14:17:37.509Z,1.10
2022-11-08T14:20:25.677Z,0.80
2022-11-08T14:22:57.047Z,0.90
2022-11-08T14:25:31.604Z,0.70
2022-11-08T14:28:00.936Z,1.53
2022-11-08T14:30:29.951Z,1.20
2022-11-08T14:33:17.780Z,1.40
2022-11-08T14:35:57.030Z,0.93
2022-11-08T14:38:28.252Z,0.93
2022-11-08T14:41:01.452Z,0.87
2022-11-08T14:43:31.686Z,1.13
2022-11-08T14:46:11.888Z,1.90
2022-11-08T14:48:51.630Z,2.23
2022-11-08T14:51:21.248Z,1.60
2022-11-08T14:53:53.259Z,1.73
2022-11-08T14:56:24.704Z,1.77
2022-11-08T14:58:55.790Z,1.13
2022-11-08T15:01:27.687Z,0.87
2022-11-08T15:03:59.598Z,1.03
2022-11-08T15:06:33.991Z,0.90
2022-11-08T15:09:07.062Z,2.33
2022-11-08T15:11:39.851Z,2.60
2022-11-08T15:14:12.750Z,0.67
2022-11-08T15:16:44.732Z,0.80
2022-11-08T15:19:29.614Z,2.33
2022-11-08T15:22:00.149Z,0.80
2022-11-08T15:24:37.856Z,1.07
2022-11-08T15:27:15.915Z,0.80
2022-11-08T15:30:00.949Z,2.83
2022-11-08T15:32:37.674Z,1.37
2022-11-08T15:35:08.799Z,1.10
2022-11-08T15:37:41.951Z,1.20
2022-11-08T15:40:21.762Z,1.33
2022-11-08T15:42:53.213Z,1.20
2022-11-08T15:45:26.929Z,1.17
2022-11-08T15:48:22.056Z,1.60
2022-11-08T15:50:51.717Z,1.93
2022-11-08T15:53:21.519Z,0.67
2022-11-08T15:55:55.244Z,3.57
2022-11-08T15:58:29.083Z,2.60
2022-11-08T16:01:01.627Z,2.03
2022-11-08T16:03:33.701Z,1.70
2022-11-08T16:06:02.736Z,3.17
2022-11-08T16:08:31.863Z,3.03
2022-11-08T16:11:02.460Z,5.57
2022-11-08T16:13:34.730Z,4.60
2022-11-08T16:16:11.159Z,6.50
2022-11-08T16:18:40.373Z,4.00
2022-11-08T16:21:11.536Z,3.03
2022-11-08T16:23:41.926Z,2.30
2022-11-08T16:26:17.424Z,2.00
2022-11-08T16:28:46.512Z,2.17
2022-11-08T16:31:17.860Z,2.07
2022-11-08T16:33:47.823Z,1.77
2022-11-08T16:36:20.863Z,1.67
2022-11-08T16:38:52.419Z,1.40
2022-11-08T16:41:24.687Z,1.60
2022-11-08T16:43:53.845Z,1.30
2022-11-08T16:46:24.295Z,1.23
2022-11-08T16:48:57.220Z,1.30
2022-11-08T16:51:26.352Z,1.87
2022-11-08T16:53:56.391Z,1.33
2022-11-08T16:56:26.755Z,1.53
2022-11-08T16:58:55.776Z,1.70
2022-11-08T17:01:33.893Z,2.50
2022-11-08T17:04:02.971Z,5.57
2022-11-08T17:06:32.120Z,3.30
2022-11-08T17:09:01.257Z,3.00
2022-11-08T17:11:31.690Z,3.87
2022-11-08T17:14:00.739Z,4.33
2022-11-08T17:16:29.772Z,4.77
2022-11-08T17:18:58.800Z,4.20
2022-11-08T17:21:44.343Z,4.23
2022-11-08T17:24:21.302Z,4.33
2022-11-08T17:26:53.571Z,4.10
2022-11-08T17:29:22.761Z,5.60
2022-11-08T17:31:53.039Z,5.43
2022-11-08T17:34:22.251Z,7.33
2022-11-08T17:36:52.736Z,9.17
2022-11-08T17:39:21.810Z,8.17
2022-11-08T17:41:52.264Z,6.80
2022-11-08T17:44:21.281Z,5.87
2022-11-08T17:46:50.384Z,6.57
2022-11-08T17:49:19.764Z,5.73
2022-11-08T17:51:48.987Z,5.43
2022-11-08T17:54:18.330Z,4.90
2022-11-08T17:56:49.872Z,4.53
2022-11-08T17:59:21.113Z,6.33
2022-11-08T18:01:50.680Z,6.90
2022-11-08T18:04:20.125Z,7.93
2022-11-08T18:06:49.572Z,5.90
2022-11-08T18:09:19.102Z,6.10
2022-11-08T18:11:48.905Z,7.17
2022-11-08T18:14:28.062Z,6.50
2022-11-08T18:17:00.193Z,6.77
2022-11-08T18:19:30.692Z,6.43
2022-11-08T18:22:01.188Z,6.07
2022-11-08T18:24:31.556Z,6.30
2022-11-08T18:27:04.692Z,5.80
2022-11-08T18:29:36.587Z,8.33
2022-11-08T18:32:07.604Z,7.23
2022-11-08T18:34:38.012Z,8.00
2022-11-08T18:37:09.951Z,7.80
2022-11-08T18:39:40.421Z,7.57
2022-11-08T18:42:10.456Z,7.53
2022-11-08T18:44:42.032Z,7.17
2022-11-08T18:47:12.206Z,8.87
2022-11-08T18:49:42.524Z,10.50
2022-11-08T18:52:12.545Z,11.37
2022-11-08T18:54:42.644Z,9.73
2022-11-08T18:57:12.375Z,9.43
2022-11-08T18:59:44.104Z,9.00
2022-11-08T19:02:14.262Z,8.57
2022-11-08T19:04:47.148Z,10.07
2022-11-08T19:07:16.982Z,9.20
2022-11-08T19:09:47.634Z,9.40
2022-11-08T19:12:17.326Z,9.07
2022-11-08T19:14:49.097Z,11.20
2022-11-08T19:17:19.141Z,12.13
2022-11-08T19:19:49.062Z,11.90
2022-11-08T19:22:19.023Z,10.23
2022-11-08T19:24:50.772Z,12.60
2022-11-08T19:27:23.096Z,9.13
2022-11-08T19:29:54.591Z,11.50
2022-11-08T19:32:24.300Z,10.47
2022-11-08T19:34:54.209Z,10.50
2022-11-08T19:37:24.279Z,11.03
2022-11-08T19:39:55.437Z,12.33
2022-11-08T19:42:25.197Z,10.17
2022-11-08T19:44:56.232Z,9.13
2022-11-08T19:47:26.080Z,10.13
2022-11-08T19:49:55.849Z,13.27
2022-11-08T19:52:25.875Z,11.20
2022-11-08T19:54:55.655Z,11.90
2022-11-08T19:57:27.482Z,55.50
2022-11-08T19:59:58.780Z,71.50
2022-11-08T20:02:28.516Z,42.30
2022-11-08T20:04:58.917Z,37.13
2022-11-08T20:07:29.725Z,26.93
2022-11-08T20:09:59.667Z,19.20
2022-11-08T20:12:32.675Z,16.60
2022-11-08T20:15:03.973Z,16.30
2022-11-08T20:17:35.033Z,19.00
2022-11-08T20:20:06.377Z,16.20
2022-11-08T20:22:36.425Z,15.90
2022-11-08T20:25:08.847Z,15.10
2022-11-08T20:27:41.659Z,13.17
2022-11-08T20:30:14.464Z,9.73
2022-11-08T20:32:44.433Z,7.67
2022-11-08T20:35:19.063Z,10.47
2022-11-08T20:37:55.998Z,10.77
2022-11-08T20:40:26.271Z,11.13
2022-11-08T20:42:56.081Z,9.10
2022-11-08T20:45:27.563Z,9.37
2022-11-08T20:47:57.253Z,10.13
2022-11-08T20:50:27.020Z,10.90
2022-11-08T20:52:56.793Z,10.37
2022-11-08T20:55:27.907Z,9.70
2022-11-08T20:57:57.804Z,9.70
2022-11-08T21:00:51.986Z,9.43
2022-11-08T21:03:37.791Z,9.70
2022-11-08T21:06:28.748Z,9.30
2022-11-08T21:09:36.680Z,8.73
2022-11-08T21:12:25.293Z,12.17
2022-11-08T21:15:13.574Z,13.47
2022-11-08T21:18:03.413Z,14.90
2022-11-08T21:21:02.058Z,11.00
2022-11-08T21:23:51.026Z,8.77
2022-11-08T21:26:39.523Z,7.63
2022-11-08T21:29:27.789Z,8.07
2022-11-08T21:32:18.716Z,13.27
2022-11-08T21:35:09.303Z,13.30
2022-11-08T21:37:59.968Z,13.53
2022-11-08T21:40:48.391Z,16.10
2022-11-08T21:43:38.307Z,14.80
2022-11-08T21:46:28.624Z,14.97
2022-11-08T21:49:16.932Z,13.33
2022-11-08T21:52:06.767Z,16.10
2022-11-08T21:54:54.884Z,9.63
2022-11-08T21:57:43.590Z,10.50
2022-11-08T22:00:32.295Z,9.20
2022-11-08T22:03:20.952Z,7.80
2022-11-08T22:06:09.944Z,6.57
2022-11-08T22:08:59.677Z,5.87
2022-11-08T22:11:47.578Z,5.87
2022-11-08T22:14:35.331Z,4.73
2022-11-08T22:17:23.211Z,5.90
2022-11-08T22:20:11.821Z,2.87
2022-11-08T22:23:00.279Z,2.70
2022-11-08T22:25:50.599Z,2.63
2022-11-08T22:28:38.433Z,2.20
2022-11-08T22:31:26.640Z,2.20
2022-11-08T22:34:14.622Z,2.93
2022-11-08T22:37:02.438Z,2.37
2022-11-08T22:39:50.342Z,1.73
2022-11-08T22:42:39.508Z,1.70
2022-11-08T22:45:27.465Z,1.53
2022-11-08T22:48:15.606Z,1.47
2022-11-08T22:51:04.162Z,2.47
2022-11-08T22:53:52.107Z,1.60
2022-11-08T22:56:41.030Z,0.70
2022-11-08T22:59:30.211Z,0.73
2022-11-08T23:02:17.822Z,1.20
2022-11-08T23:05:05.824Z,0.70
2022-11-08T23:07:54.316Z,1.70
2022-11-08T23:11:09.806Z,0.80
2022-11-08T23:14:15.327Z,0.90
2022-11-08T23:17:04.900Z,1.30
2022-11-08T23:20:10.104Z,1.53
2022-11-08T23:23:15.325Z,1.90
2022-11-08T23:26:03.218Z,0.90
2022-11-08T23:29:19.746Z,0.80
2022-11-08T23:32:08.884Z,1.00
2022-11-08T23:34:57.606Z,0.80
2022-11-08T23:37:45.524Z,0.60
2022-11-08T23:40:50.510Z,0.90
2022-11-08T23:43:55.918Z,1.37
2022-11-08T23:46:43.944Z,1.60
2022-11-08T23:49:33.423Z,0.70
2022-11-08T23:52:21.237Z,1.20
2022-11-08T23:55:10.193Z,0.33
2022-11-08T23:57:58.009Z,0.73
